sensor_id;sensor_type;location;lat;lon;timestamp;P1;durP1;ratioP1;P2;durP2;ratioP2
39848;SDS011;25518;47.878;15.914;2023-06-26T00:01:55;9.25;;;5.80;;
39848;SDS011;25518;47.878;15.914;2023-06-26T00:04:44;8.70;;;5.80;;
39848;SDS011;25518;47.878;15.914;2023-06-26T00:07:34;8.27;;;5.45;;
39848;SDS011;25518;47.878;15.914;2023-06-26T00:10:25;8.93;;;5.97;;
39848;SDS011;25518;47.878;15.914;2023-06-26T00:13:15;10.57;;;6.28;;
39848;SDS011;25518;47.878;15.914;2023-06-26T00:16:05;9.10;;;6.03;;
39848;SDS011;25518;47.878;15.914;2023-06-26T00:18:55;8.07;;;5.57;;
39848;SDS011;25518;47.878;15.914;2023-06-26T00:21:45;10.40;;;5.70;;
39848;SDS011;25518;47.878;15.914;2023-06-26T00:24:36;8.88;;;5.82;;
39848;SDS011;25518;47.878;15.914;2023-06-26T00:27:26;9.15;;;6.03;;
39848;SDS011;25518;47.878;15.914;2023-06-26T00:30:15;10.10;;;6.35;;
39848;SDS011;25518;47.878;15.914;2023-06-26T00:33:05;8.52;;;6.13;;
39848;SDS011;25518;47.878;15.914;2023-06-26T00:35:55;7.90;;;5.30;;
39848;SDS011;25518;47.878;15.914;2023-06-26T00:38:45;8.35;;;5.40;;
39848;SDS011;25518;47.878;15.914;2023-06-26T00:41:36;8.07;;;5.60;;
39848;SDS011;25518;47.878;15.914;2023-06-26T00:44:26;7.38;;;5.03;;
39848;SDS011;25518;47.878;15.914;2023-06-26T00:47:16;10.63;;;5.22;;
39848;SDS011;25518;47.878;15.914;2023-06-26T00:50:06;7.40;;;5.40;;
39848;SDS011;25518;47.878;15.914;2023-06-26T00:52:56;9.23;;;5.82;;
39848;SDS011;25518;47.878;15.914;2023-06-26T00:55:49;8.20;;;5.70;;
39848;SDS011;25518;47.878;15.914;2023-06-26T00:58:38;8.90;;;5.63;;
39848;SDS011;25518;47.878;15.914;2023-06-26T01:01:28;12.83;;;6.13;;
39848;SDS011;25518;47.878;15.914;2023-06-26T01:04:18;8.47;;;5.50;;
39848;SDS011;25518;47.878;15.914;2023-06-26T01:07:07;8.75;;;5.75;;
39848;SDS011;25518;47.878;15.914;2023-06-26T01:09:57;7.70;;;5.28;;
39848;SDS011;25518;47.878;15.914;2023-06-26T01:12:48;8.75;;;5.38;;
39848;SDS011;25518;47.878;15.914;2023-06-26T01:15:38;10.20;;;5.68;;
39848;SDS011;25518;47.878;15.914;2023-06-26T01:18:29;7.78;;;4.75;;
39848;SDS011;25518;47.878;15.914;2023-06-26T01:21:20;9.60;;;6.27;;
39848;SDS011;25518;47.878;15.914;2023-06-26T01:24:12;11.45;;;5.53;;
39848;SDS011;25518;47.878;15.914;2023-06-26T01:27:09;8.27;;;5.78;;
39848;SDS011;25518;47.878;15.914;2023-06-26T01:30:02;9.53;;;5.67;;
39848;SDS011;25518;47.878;15.914;2023-06-26T01:32:53;10.38;;;5.88;;
39848;SDS011;25518;47.878;15.914;2023-06-26T01:35:43;10.88;;;6.00;;
39848;SDS011;25518;47.878;15.914;2023-06-26T01:38:33;9.07;;;5.73;;
39848;SDS011;25518;47.878;15.914;2023-06-26T01:41:23;9.97;;;6.30;;
39848;SDS011;25518;47.878;15.914;2023-06-26T01:44:16;10.45;;;5.90;;
39848;SDS011;25518;47.878;15.914;2023-06-26T01:47:24;9.68;;;6.28;;
39848;SDS011;25518;47.878;15.914;2023-06-26T01:50:18;10.32;;;5.90;;
39848;SDS011;25518;47.878;15.914;2023-06-26T01:53:16;9.25;;;5.50;;
39848;SDS011;25518;47.878;15.914;2023-06-26T01:56:13;10.23;;;5.95;;
39848;SDS011;25518;47.878;15.914;2023-06-26T01:59:05;8.52;;;5.65;;
39848;SDS011;25518;47.878;15.914;2023-06-26T02:01:56;9.13;;;5.78;;
39848;SDS011;25518;47.878;15.914;2023-06-26T02:04:45;8.85;;;5.90;;
39848;SDS011;25518;47.878;15.914;2023-06-26T02:07:36;10.18;;;6.47;;
39848;SDS011;25518;47.878;15.914;2023-06-26T02:10:26;8.23;;;5.00;;
39848;SDS011;25518;47.878;15.914;2023-06-26T02:13:15;8.68;;;5.28;;
39848;SDS011;25518;47.878;15.914;2023-06-26T02:16:05;9.48;;;5.30;;
39848;SDS011;25518;47.878;15.914;2023-06-26T02:18:54;8.93;;;5.72;;
39848;SDS011;25518;47.878;15.914;2023-06-26T02:21:47;11.02;;;6.32;;
39848;SDS011;25518;47.878;15.914;2023-06-26T02:24:38;9.27;;;5.13;;
39848;SDS011;25518;47.878;15.914;2023-06-26T02:27:27;9.43;;;5.95;;
39848;SDS011;25518;47.878;15.914;2023-06-26T02:30:17;9.57;;;5.90;;
39848;SDS011;25518;47.878;15.914;2023-06-26T02:33:06;8.68;;;5.68;;
39848;SDS011;25518;47.878;15.914;2023-06-26T02:35:56;8.75;;;5.38;;
39848;SDS011;25518;47.878;15.914;2023-06-26T02:38:46;9.23;;;5.97;;
39848;SDS011;25518;47.878;15.914;2023-06-26T02:41:35;10.23;;;5.78;;
39848;SDS011;25518;47.878;15.914;2023-06-26T02:44:25;10.88;;;5.70;;
39848;SDS011;25518;47.878;15.914;2023-06-26T02:47:14;9.50;;;5.97;;
39848;SDS011;25518;47.878;15.914;2023-06-26T02:50:05;9.27;;;5.63;;
39848;SDS011;25518;47.878;15.914;2023-06-26T02:52:55;11.60;;;6.07;;
39848;SDS011;25518;47.878;15.914;2023-06-26T02:55:45;7.88;;;5.57;;
39848;SDS011;25518;47.878;15.914;2023-06-26T02:58:36;10.05;;;6.05;;
39848;SDS011;25518;47.878;15.914;2023-06-26T03:18:20;7.80;;;5.28;;
39848;SDS011;25518;47.878;15.914;2023-06-26T03:21:10;10.15;;;5.80;;
39848;SDS011;25518;47.878;15.914;2023-06-26T03:24:00;8.70;;;5.30;;
39848;SDS011;25518;47.878;15.914;2023-06-26T03:26:49;7.63;;;5.38;;
39848;SDS011;25518;47.878;15.914;2023-06-26T03:29:39;8.23;;;5.30;;
39848;SDS011;25518;47.878;15.914;2023-06-26T03:32:29;7.22;;;4.43;;
39848;SDS011;25518;47.878;15.914;2023-06-26T03:35:19;8.10;;;5.57;;
39848;SDS011;25518;47.878;15.914;2023-06-26T03:38:09;9.02;;;5.35;;
39848;SDS011;25518;47.878;15.914;2023-06-26T03:40:59;7.53;;;5.17;;
39848;SDS011;25518;47.878;15.914;2023-06-26T03:43:48;8.63;;;5.90;;
39848;SDS011;25518;47.878;15.914;2023-06-26T03:46:38;8.90;;;5.78;;
39848;SDS011;25518;47.878;15.914;2023-06-26T03:49:27;6.68;;;4.70;;
39848;SDS011;25518;47.878;15.914;2023-06-26T03:52:17;8.18;;;4.90;;
39848;SDS011;25518;47.878;15.914;2023-06-26T03:55:07;7.72;;;5.00;;
39848;SDS011;25518;47.878;15.914;2023-06-26T03:57:57;9.23;;;5.75;;
39848;SDS011;25518;47.878;15.914;2023-06-26T04:00:47;9.52;;;5.97;;
39848;SDS011;25518;47.878;15.914;2023-06-26T04:03:36;9.13;;;5.68;;
39848;SDS011;25518;47.878;15.914;2023-06-26T04:06:26;7.88;;;5.22;;
39848;SDS011;25518;47.878;15.914;2023-06-26T04:09:16;10.32;;;5.20;;
39848;SDS011;25518;47.878;15.914;2023-06-26T04:12:05;8.98;;;5.43;;
39848;SDS011;25518;47.878;15.914;2023-06-26T04:14:55;9.00;;;5.78;;
39848;SDS011;25518;47.878;15.914;2023-06-26T04:17:45;9.23;;;5.60;;
39848;SDS011;25518;47.878;15.914;2023-06-26T04:20:39;10.65;;;5.95;;
39848;SDS011;25518;47.878;15.914;2023-06-26T04:23:30;8.70;;;5.53;;
39848;SDS011;25518;47.878;15.914;2023-06-26T04:26:20;9.25;;;5.22;;
39848;SDS011;25518;47.878;15.914;2023-06-26T04:29:10;7.70;;;5.07;;
39848;SDS011;25518;47.878;15.914;2023-06-26T04:31:59;7.80;;;5.20;;
39848;SDS011;25518;47.878;15.914;2023-06-26T04:34:49;8.07;;;5.32;;
39848;SDS011;25518;47.878;15.914;2023-06-26T04:37:39;8.65;;;5.25;;
39848;SDS011;25518;47.878;15.914;2023-06-26T04:40:28;9.80;;;5.57;;
39848;SDS011;25518;47.878;15.914;2023-06-26T04:43:18;8.60;;;5.80;;
39848;SDS011;25518;47.878;15.914;2023-06-26T04:46:07;7.60;;;5.13;;
39848;SDS011;25518;47.878;15.914;2023-06-26T04:48:57;7.70;;;5.03;;
39848;SDS011;25518;47.878;15.914;2023-06-26T04:51:47;7.57;;;5.03;;
39848;SDS011;25518;47.878;15.914;2023-06-26T04:54:37;7.50;;;5.20;;
39848;SDS011;25518;47.878;15.914;2023-06-26T04:57:26;8.05;;;5.78;;
39848;SDS011;25518;47.878;15.914;2023-06-26T05:00:16;9.88;;;5.45;;
39848;SDS011;25518;47.878;15.914;2023-06-26T05:03:06;8.80;;;5.60;;
39848;SDS011;25518;47.878;15.914;2023-06-26T05:05:56;9.48;;;5.30;;
39848;SDS011;25518;47.878;15.914;2023-06-26T05:08:45;7.57;;;5.20;;
39848;SDS011;25518;47.878;15.914;2023-06-26T05:11:35;8.20;;;5.00;;
39848;SDS011;25518;47.878;15.914;2023-06-26T05:14:25;7.97;;;5.18;;
39848;SDS011;25518;47.878;15.914;2023-06-26T05:17:15;7.95;;;4.90;;
39848;SDS011;25518;47.878;15.914;2023-06-26T05:20:05;9.80;;;5.13;;
39848;SDS011;25518;47.878;15.914;2023-06-26T05:22:55;8.18;;;5.28;;
39848;SDS011;25518;47.878;15.914;2023-06-26T05:25:46;8.98;;;5.30;;
39848;SDS011;25518;47.878;15.914;2023-06-26T05:28:36;7.78;;;5.10;;
39848;SDS011;25518;47.878;15.914;2023-06-26T05:31:27;8.90;;;5.63;;
39848;SDS011;25518;47.878;15.914;2023-06-26T05:34:16;7.82;;;5.18;;
39848;SDS011;25518;47.878;15.914;2023-06-26T05:37:09;7.40;;;5.07;;
39848;SDS011;25518;47.878;15.914;2023-06-26T05:40:02;8.00;;;5.18;;
39848;SDS011;25518;47.878;15.914;2023-06-26T05:42:54;8.53;;;5.00;;
39848;SDS011;25518;47.878;15.914;2023-06-26T05:45:43;8.07;;;5.30;;
39848;SDS011;25518;47.878;15.914;2023-06-26T05:48:33;7.78;;;4.90;;
39848;SDS011;25518;47.878;15.914;2023-06-26T05:51:23;8.70;;;5.37;;
39848;SDS011;25518;47.878;15.914;2023-06-26T05:54:13;8.00;;;4.80;;
39848;SDS011;25518;47.878;15.914;2023-06-26T05:57:03;6.57;;;4.72;;
39848;SDS011;25518;47.878;15.914;2023-06-26T05:59:53;7.90;;;5.30;;
39848;SDS011;25518;47.878;15.914;2023-06-26T06:02:44;8.07;;;5.05;;
39848;SDS011;25518;47.878;15.914;2023-06-26T06:05:34;7.65;;;5.00;;
39848;SDS011;25518;47.878;15.914;2023-06-26T06:08:24;7.57;;;5.10;;
39848;SDS011;25518;47.878;15.914;2023-06-26T06:11:13;9.20;;;5.43;;
39848;SDS011;25518;47.878;15.914;2023-06-26T06:14:04;9.60;;;5.30;;
39848;SDS011;25518;47.878;15.914;2023-06-26T06:16:54;8.20;;;5.15;;
39848;SDS011;25518;47.878;15.914;2023-06-26T06:19:44;8.32;;;5.07;;
39848;SDS011;25518;47.878;15.914;2023-06-26T06:22:34;9.25;;;5.55;;
39848;SDS011;25518;47.878;15.914;2023-06-26T06:25:23;8.57;;;5.18;;
39848;SDS011;25518;47.878;15.914;2023-06-26T06:28:13;7.63;;;5.20;;
39848;SDS011;25518;47.878;15.914;2023-06-26T06:31:05;7.93;;;5.45;;
39848;SDS011;25518;47.878;15.914;2023-06-26T06:33:55;7.68;;;5.35;;
39848;SDS011;25518;47.878;15.914;2023-06-26T06:36:45;10.63;;;5.15;;
39848;SDS011;25518;47.878;15.914;2023-06-26T06:39:35;7.40;;;4.80;;
39848;SDS011;25518;47.878;15.914;2023-06-26T06:42:25;7.03;;;4.53;;
39848;SDS011;25518;47.878;15.914;2023-06-26T06:45:14;8.25;;;5.57;;
39848;SDS011;25518;47.878;15.914;2023-06-26T06:48:04;6.55;;;4.40;;
39848;SDS011;25518;47.878;15.914;2023-06-26T06:50:55;7.00;;;4.82;;
39848;SDS011;25518;47.878;15.914;2023-06-26T06:53:44;7.40;;;4.95;;
39848;SDS011;25518;47.878;15.914;2023-06-26T06:56:34;8.40;;;4.80;;
39848;SDS011;25518;47.878;15.914;2023-06-26T06:59:24;7.45;;;5.00;;
39848;SDS011;25518;47.878;15.914;2023-06-26T07:02:13;8.15;;;4.85;;
39848;SDS011;25518;47.878;15.914;2023-06-26T07:05:05;7.38;;;5.28;;
39848;SDS011;25518;47.878;15.914;2023-06-26T07:07:55;6.88;;;4.78;;
39848;SDS011;25518;47.878;15.914;2023-06-26T07:10:45;8.88;;;4.93;;
39848;SDS011;25518;47.878;15.914;2023-06-26T07:13:34;8.18;;;5.07;;
39848;SDS011;25518;47.878;15.914;2023-06-26T07:16:24;7.40;;;4.82;;
39848;SDS011;25518;47.878;15.914;2023-06-26T07:19:14;11.05;;;5.85;;
39848;SDS011;25518;47.878;15.914;2023-06-26T07:22:04;8.00;;;5.25;;
39848;SDS011;25518;47.878;15.914;2023-06-26T07:24:53;7.50;;;5.40;;
39848;SDS011;25518;47.878;15.914;2023-06-26T07:27:43;9.07;;;6.00;;
39848;SDS011;25518;47.878;15.914;2023-06-26T07:30:33;7.75;;;4.93;;
39848;SDS011;25518;47.878;15.914;2023-06-26T07:33:23;7.47;;;4.60;;
39848;SDS011;25518;47.878;15.914;2023-06-26T07:36:12;8.25;;;4.65;;
39848;SDS011;25518;47.878;15.914;2023-06-26T07:39:02;8.30;;;5.25;;
39848;SDS011;25518;47.878;15.914;2023-06-26T07:41:52;5.60;;;4.18;;
39848;SDS011;25518;47.878;15.914;2023-06-26T07:44:42;6.05;;;4.25;;
39848;SDS011;25518;47.878;15.914;2023-06-26T07:47:32;5.97;;;4.27;;
39848;SDS011;25518;47.878;15.914;2023-06-26T07:50:21;6.05;;;4.38;;
39848;SDS011;25518;47.878;15.914;2023-06-26T07:53:11;6.53;;;4.35;;
39848;SDS011;25518;47.878;15.914;2023-06-26T07:56:00;7.40;;;4.10;;
39848;SDS011;25518;47.878;15.914;2023-06-26T07:58:50;6.22;;;4.07;;
39848;SDS011;25518;47.878;15.914;2023-06-26T08:01:41;6.50;;;4.15;;
39848;SDS011;25518;47.878;15.914;2023-06-26T08:04:31;5.47;;;4.13;;
39848;SDS011;25518;47.878;15.914;2023-06-26T08:07:22;6.28;;;3.88;;
39848;SDS011;25518;47.878;15.914;2023-06-26T08:10:12;6.67;;;4.13;;
39848;SDS011;25518;47.878;15.914;2023-06-26T08:13:02;6.90;;;4.25;;
39848;SDS011;25518;47.878;15.914;2023-06-26T08:15:51;6.47;;;3.70;;
39848;SDS011;25518;47.878;15.914;2023-06-26T08:18:41;5.70;;;3.50;;
39848;SDS011;25518;47.878;15.914;2023-06-26T08:21:30;6.40;;;4.03;;
39848;SDS011;25518;47.878;15.914;2023-06-26T08:24:20;7.28;;;3.72;;
39848;SDS011;25518;47.878;15.914;2023-06-26T08:27:11;5.78;;;3.13;;
39848;SDS011;25518;47.878;15.914;2023-06-26T08:30:00;5.70;;;4.03;;
39848;SDS011;25518;47.878;15.914;2023-06-26T08:32:50;6.13;;;4.10;;
39848;SDS011;25518;47.878;15.914;2023-06-26T08:35:40;5.90;;;3.50;;
39848;SDS011;25518;47.878;15.914;2023-06-26T08:38:31;6.85;;;3.50;;
39848;SDS011;25518;47.878;15.914;2023-06-26T08:41:22;7.78;;;3.60;;
39848;SDS011;25518;47.878;15.914;2023-06-26T08:44:11;4.80;;;3.27;;
39848;SDS011;25518;47.878;15.914;2023-06-26T08:47:01;5.80;;;3.88;;
39848;SDS011;25518;47.878;15.914;2023-06-26T08:49:53;6.15;;;3.65;;
39848;SDS011;25518;47.878;15.914;2023-06-26T08:52:53;5.50;;;3.50;;
39848;SDS011;25518;47.878;15.914;2023-06-26T08:55:45;4.97;;;3.08;;
39848;SDS011;25518;47.878;15.914;2023-06-26T08:58:37;5.72;;;3.25;;
39848;SDS011;25518;47.878;15.914;2023-06-26T09:01:27;4.95;;;3.35;;
39848;SDS011;25518;47.878;15.914;2023-06-26T09:04:17;5.13;;;3.20;;
39848;SDS011;25518;47.878;15.914;2023-06-26T09:07:07;5.97;;;3.38;;
39848;SDS011;25518;47.878;15.914;2023-06-26T09:09:56;4.90;;;3.30;;
39848;SDS011;25518;47.878;15.914;2023-06-26T09:12:47;4.30;;;2.80;;
39848;SDS011;25518;47.878;15.914;2023-06-26T09:15:37;5.25;;;3.20;;
39848;SDS011;25518;47.878;15.914;2023-06-26T09:18:30;5.55;;;3.05;;
39848;SDS011;25518;47.878;15.914;2023-06-26T09:21:21;4.55;;;3.00;;
39848;SDS011;25518;47.878;15.914;2023-06-26T09:24:13;5.70;;;3.20;;
39848;SDS011;25518;47.878;15.914;2023-06-26T09:27:02;4.43;;;2.95;;
39848;SDS011;25518;47.878;15.914;2023-06-26T09:29:53;6.88;;;3.10;;
39848;SDS011;25518;47.878;15.914;2023-06-26T09:32:42;4.50;;;3.00;;
39848;SDS011;25518;47.878;15.914;2023-06-26T09:35:33;4.60;;;3.28;;
39848;SDS011;25518;47.878;15.914;2023-06-26T09:38:22;4.90;;;3.00;;
39848;SDS011;25518;47.878;15.914;2023-06-26T09:41:15;6.22;;;2.95;;
39848;SDS011;25518;47.878;15.914;2023-06-26T09:44:07;5.28;;;3.40;;
39848;SDS011;25518;47.878;15.914;2023-06-26T09:47:01;5.80;;;2.90;;
39848;SDS011;25518;47.878;15.914;2023-06-26T09:49:52;5.00;;;3.07;;
39848;SDS011;25518;47.878;15.914;2023-06-26T09:52:43;6.60;;;3.00;;
39848;SDS011;25518;47.878;15.914;2023-06-26T09:55:34;4.57;;;2.90;;
39848;SDS011;25518;47.878;15.914;2023-06-26T09:58:25;4.78;;;3.17;;
39848;SDS011;25518;47.878;15.914;2023-06-26T10:01:17;6.15;;;2.92;;
39848;SDS011;25518;47.878;15.914;2023-06-26T10:04:07;5.05;;;2.85;;
39848;SDS011;25518;47.878;15.914;2023-06-26T10:06:57;5.03;;;2.70;;
39848;SDS011;25518;47.878;15.914;2023-06-26T10:09:49;4.50;;;2.58;;
39848;SDS011;25518;47.878;15.914;2023-06-26T10:12:42;4.82;;;3.00;;
39848;SDS011;25518;47.878;15.914;2023-06-26T10:15:37;4.53;;;2.85;;
39848;SDS011;25518;47.878;15.914;2023-06-26T10:18:29;5.00;;;2.78;;
39848;SDS011;25518;47.878;15.914;2023-06-26T10:21:22;6.00;;;3.10;;
39848;SDS011;25518;47.878;15.914;2023-06-26T10:24:14;4.40;;;2.83;;
39848;SDS011;25518;47.878;15.914;2023-06-26T10:27:21;4.95;;;2.80;;
39848;SDS011;25518;47.878;15.914;2023-06-26T10:30:16;4.47;;;2.87;;
39848;SDS011;25518;47.878;15.914;2023-06-26T10:33:10;5.03;;;2.87;;
39848;SDS011;25518;47.878;15.914;2023-06-26T10:36:18;4.65;;;2.88;;
39848;SDS011;25518;47.878;15.914;2023-06-26T10:39:10;4.78;;;2.88;;
39848;SDS011;25518;47.878;15.914;2023-06-26T10:42:08;4.40;;;2.65;;
39848;SDS011;25518;47.878;15.914;2023-06-26T10:44:59;4.03;;;2.83;;
39848;SDS011;25518;47.878;15.914;2023-06-26T10:47:59;4.20;;;2.88;;
39848;SDS011;25518;47.878;15.914;2023-06-26T10:50:49;6.22;;;3.22;;
39848;SDS011;25518;47.878;15.914;2023-06-26T10:53:39;4.72;;;3.25;;
39848;SDS011;25518;47.878;15.914;2023-06-26T10:56:41;4.25;;;2.70;;
39848;SDS011;25518;47.878;15.914;2023-06-26T10:59:33;5.53;;;3.17;;
39848;SDS011;25518;47.878;15.914;2023-06-26T11:02:25;5.43;;;3.08;;
39848;SDS011;25518;47.878;15.914;2023-06-26T11:05:32;4.67;;;2.93;;
39848;SDS011;25518;47.878;15.914;2023-06-26T11:08:22;4.43;;;2.90;;
39848;SDS011;25518;47.878;15.914;2023-06-26T11:14:41;4.88;;;3.08;;
39848;SDS011;25518;47.878;15.914;2023-06-26T11:17:35;4.43;;;3.00;;
39848;SDS011;25518;47.878;15.914;2023-06-26T11:20:26;5.75;;;2.70;;
39848;SDS011;25518;47.878;15.914;2023-06-26T11:23:17;4.70;;;3.08;;
39848;SDS011;25518;47.878;15.914;2023-06-26T11:29:04;4.80;;;2.95;;
39848;SDS011;25518;47.878;15.914;2023-06-26T11:31:58;4.65;;;2.88;;
39848;SDS011;25518;47.878;15.914;2023-06-26T11:34:50;4.80;;;2.80;;
39848;SDS011;25518;47.878;15.914;2023-06-26T11:37:40;4.20;;;2.78;;
39848;SDS011;25518;47.878;15.914;2023-06-26T11:40:30;4.75;;;2.92;;
39848;SDS011;25518;47.878;15.914;2023-06-26T11:43:24;4.80;;;3.05;;
39848;SDS011;25518;47.878;15.914;2023-06-26T11:46:15;4.78;;;3.10;;
39848;SDS011;25518;47.878;15.914;2023-06-26T11:49:07;5.25;;;2.72;;
39848;SDS011;25518;47.878;15.914;2023-06-26T11:51:57;4.55;;;2.90;;
39848;SDS011;25518;47.878;15.914;2023-06-26T11:54:48;4.28;;;2.40;;
39848;SDS011;25518;47.878;15.914;2023-06-26T11:57:37;4.77;;;2.77;;
39848;SDS011;25518;47.878;15.914;2023-06-26T12:00:27;4.80;;;3.22;;
39848;SDS011;25518;47.878;15.914;2023-06-26T12:03:17;4.47;;;2.72;;
39848;SDS011;25518;47.878;15.914;2023-06-26T12:06:09;4.18;;;2.50;;
39848;SDS011;25518;47.878;15.914;2023-06-26T12:09:00;4.13;;;2.65;;
39848;SDS011;25518;47.878;15.914;2023-06-26T12:11:54;4.30;;;2.65;;
39848;SDS011;25518;47.878;15.914;2023-06-26T12:14:45;4.43;;;2.80;;
39848;SDS011;25518;47.878;15.914;2023-06-26T12:17:37;4.50;;;2.90;;
39848;SDS011;25518;47.878;15.914;2023-06-26T12:20:28;4.72;;;2.97;;
39848;SDS011;25518;47.878;15.914;2023-06-26T12:23:21;4.77;;;3.17;;
39848;SDS011;25518;47.878;15.914;2023-06-26T12:26:15;5.75;;;3.33;;
39848;SDS011;25518;47.878;15.914;2023-06-26T12:29:09;5.57;;;3.28;;
39848;SDS011;25518;47.878;15.914;2023-06-26T12:32:01;5.55;;;3.15;;
39848;SDS011;25518;47.878;15.914;2023-06-26T12:34:51;5.07;;;2.95;;
39848;SDS011;25518;47.878;15.914;2023-06-26T12:37:41;4.73;;;3.00;;
39848;SDS011;25518;47.878;15.914;2023-06-26T12:40:33;4.55;;;3.05;;
39848;SDS011;25518;47.878;15.914;2023-06-26T12:43:23;8.17;;;3.13;;
39848;SDS011;25518;47.878;15.914;2023-06-26T12:46:13;4.80;;;2.87;;
39848;SDS011;25518;47.878;15.914;2023-06-26T12:49:02;4.82;;;3.03;;
39848;SDS011;25518;47.878;15.914;2023-06-26T12:51:52;5.30;;;3.43;;
39848;SDS011;25518;47.878;15.914;2023-06-26T12:54:42;4.25;;;2.88;;
39848;SDS011;25518;47.878;15.914;2023-06-26T12:57:33;5.35;;;3.13;;
39848;SDS011;25518;47.878;15.914;2023-06-26T13:00:22;4.95;;;3.10;;
39848;SDS011;25518;47.878;15.914;2023-06-26T13:03:12;4.53;;;2.93;;
39848;SDS011;25518;47.878;15.914;2023-06-26T13:06:02;4.05;;;2.90;;
39848;SDS011;25518;47.878;15.914;2023-06-26T13:08:51;4.30;;;3.10;;
39848;SDS011;25518;47.878;15.914;2023-06-26T13:11:42;4.80;;;2.93;;
39848;SDS011;25518;47.878;15.914;2023-06-26T13:14:31;5.18;;;3.13;;
39848;SDS011;25518;47.878;15.914;2023-06-26T13:17:22;5.53;;;3.20;;
39848;SDS011;25518;47.878;15.914;2023-06-26T13:20:11;4.70;;;3.08;;
39848;SDS011;25518;47.878;15.914;2023-06-26T13:23:02;4.67;;;3.10;;
39848;SDS011;25518;47.878;15.914;2023-06-26T13:25:52;5.00;;;3.50;;
39848;SDS011;25518;47.878;15.914;2023-06-26T13:28:42;5.85;;;3.70;;
39848;SDS011;25518;47.878;15.914;2023-06-26T13:31:32;5.30;;;3.03;;
39848;SDS011;25518;47.878;15.914;2023-06-26T13:34:22;5.97;;;3.50;;
39848;SDS011;25518;47.878;15.914;2023-06-26T13:37:12;4.78;;;3.08;;
39848;SDS011;25518;47.878;15.914;2023-06-26T13:40:02;4.95;;;3.53;;
39848;SDS011;25518;47.878;15.914;2023-06-26T13:42:55;4.85;;;3.17;;
39848;SDS011;25518;47.878;15.914;2023-06-26T13:45:45;5.50;;;3.38;;
39848;SDS011;25518;47.878;15.914;2023-06-26T13:48:35;5.32;;;3.45;;
39848;SDS011;25518;47.878;15.914;2023-06-26T13:51:24;4.43;;;3.28;;
39848;SDS011;25518;47.878;15.914;2023-06-26T13:54:14;5.13;;;3.30;;
39848;SDS011;25518;47.878;15.914;2023-06-26T13:57:03;5.25;;;3.30;;
39848;SDS011;25518;47.878;15.914;2023-06-26T13:59:54;4.72;;;3.42;;
39848;SDS011;25518;47.878;15.914;2023-06-26T14:02:43;7.22;;;3.70;;
39848;SDS011;25518;47.878;15.914;2023-06-26T14:05:33;4.70;;;3.30;;
39848;SDS011;25518;47.878;15.914;2023-06-26T14:08:23;8.75;;;3.80;;
39848;SDS011;25518;47.878;15.914;2023-06-26T14:11:13;6.25;;;3.35;;
39848;SDS011;25518;47.878;15.914;2023-06-26T14:14:04;5.90;;;3.35;;
39848;SDS011;25518;47.878;15.914;2023-06-26T14:16:54;4.50;;;2.92;;
39848;SDS011;25518;47.878;15.914;2023-06-26T14:19:43;5.93;;;3.50;;
39848;SDS011;25518;47.878;15.914;2023-06-26T14:22:34;5.50;;;3.30;;
39848;SDS011;25518;47.878;15.914;2023-06-26T14:25:24;5.50;;;3.37;;
39848;SDS011;25518;47.878;15.914;2023-06-26T14:28:17;4.95;;;3.22;;
39848;SDS011;25518;47.878;15.914;2023-06-26T14:31:06;4.72;;;3.28;;
39848;SDS011;25518;47.878;15.914;2023-06-26T14:33:56;5.03;;;3.30;;
39848;SDS011;25518;47.878;15.914;2023-06-26T14:36:47;4.90;;;3.13;;
39848;SDS011;25518;47.878;15.914;2023-06-26T14:39:37;6.28;;;3.33;;
39848;SDS011;25518;47.878;15.914;2023-06-26T14:42:27;5.53;;;3.67;;
39848;SDS011;25518;47.878;15.914;2023-06-26T14:45:17;5.57;;;3.80;;
39848;SDS011;25518;47.878;15.914;2023-06-26T14:48:06;5.35;;;3.38;;
39848;SDS011;25518;47.878;15.914;2023-06-26T14:50:56;5.13;;;3.20;;
39848;SDS011;25518;47.878;15.914;2023-06-26T14:53:45;5.00;;;3.30;;
39848;SDS011;25518;47.878;15.914;2023-06-26T14:56:36;4.43;;;3.20;;
39848;SDS011;25518;47.878;15.914;2023-06-26T14:59:26;6.50;;;3.47;;
39848;SDS011;25518;47.878;15.914;2023-06-26T15:02:16;4.97;;;3.60;;
39848;SDS011;25518;47.878;15.914;2023-06-26T15:05:05;6.75;;;3.35;;
39848;SDS011;25518;47.878;15.914;2023-06-26T15:07:56;5.75;;;3.30;;
39848;SDS011;25518;47.878;15.914;2023-06-26T15:10:45;5.27;;;3.50;;
39848;SDS011;25518;47.878;15.914;2023-06-26T15:13:35;5.82;;;3.38;;
39848;SDS011;25518;47.878;15.914;2023-06-26T15:16:24;4.63;;;3.28;;
39848;SDS011;25518;47.878;15.914;2023-06-26T15:19:14;5.53;;;3.13;;
39848;SDS011;25518;47.878;15.914;2023-06-26T15:22:03;5.40;;;3.78;;
39848;SDS011;25518;47.878;15.914;2023-06-26T15:24:53;5.70;;;3.78;;
39848;SDS011;25518;47.878;15.914;2023-06-26T15:27:42;5.25;;;3.47;;
39848;SDS011;25518;47.878;15.914;2023-06-26T15:30:32;4.47;;;3.30;;
39848;SDS011;25518;47.878;15.914;2023-06-26T15:33:22;4.97;;;3.15;;
39848;SDS011;25518;47.878;15.914;2023-06-26T15:36:11;4.68;;;3.13;;
39848;SDS011;25518;47.878;15.914;2023-06-26T15:39:01;6.77;;;3.20;;
39848;SDS011;25518;47.878;15.914;2023-06-26T15:41:50;4.70;;;2.97;;
39848;SDS011;25518;47.878;15.914;2023-06-26T15:44:40;4.60;;;3.13;;
39848;SDS011;25518;47.878;15.914;2023-06-26T15:47:30;5.13;;;3.30;;
39848;SDS011;25518;47.878;15.914;2023-06-26T15:50:20;6.32;;;3.67;;
39848;SDS011;25518;47.878;15.914;2023-06-26T15:53:09;4.20;;;2.90;;
39848;SDS011;25518;47.878;15.914;2023-06-26T15:56:08;4.55;;;3.20;;
39848;SDS011;25518;47.878;15.914;2023-06-26T15:58:59;6.30;;;3.33;;
39848;SDS011;25518;47.878;15.914;2023-06-26T16:01:49;5.13;;;3.20;;
39848;SDS011;25518;47.878;15.914;2023-06-26T16:04:40;4.90;;;3.38;;
39848;SDS011;25518;47.878;15.914;2023-06-26T16:07:29;5.43;;;3.35;;
39848;SDS011;25518;47.878;15.914;2023-06-26T16:10:19;5.70;;;3.33;;
39848;SDS011;25518;47.878;15.914;2023-06-26T16:13:08;4.90;;;3.15;;
39848;SDS011;25518;47.878;15.914;2023-06-26T16:15:58;4.63;;;3.00;;
39848;SDS011;25518;47.878;15.914;2023-06-26T16:18:49;4.93;;;3.30;;
39848;SDS011;25518;47.878;15.914;2023-06-26T16:21:39;4.63;;;2.80;;
39848;SDS011;25518;47.878;15.914;2023-06-26T16:24:28;4.68;;;3.28;;
39848;SDS011;25518;47.878;15.914;2023-06-26T16:27:18;4.57;;;3.00;;
39848;SDS011;25518;47.878;15.914;2023-06-26T16:30:08;5.40;;;2.97;;
39848;SDS011;25518;47.878;15.914;2023-06-26T16:32:57;4.72;;;3.05;;
39848;SDS011;25518;47.878;15.914;2023-06-26T16:35:48;5.30;;;3.03;;
39848;SDS011;25518;47.878;15.914;2023-06-26T16:38:38;5.13;;;3.03;;
39848;SDS011;25518;47.878;15.914;2023-06-26T16:41:29;4.60;;;2.92;;
39848;SDS011;25518;47.878;15.914;2023-06-26T16:44:19;4.32;;;2.75;;
39848;SDS011;25518;47.878;15.914;2023-06-26T16:47:10;4.78;;;3.20;;
39848;SDS011;25518;47.878;15.914;2023-06-26T16:49:59;5.75;;;3.00;;
39848;SDS011;25518;47.878;15.914;2023-06-26T16:52:49;4.88;;;2.90;;
39848;SDS011;25518;47.878;15.914;2023-06-26T16:55:38;4.32;;;2.83;;
39848;SDS011;25518;47.878;15.914;2023-06-26T16:58:28;4.30;;;2.92;;
39848;SDS011;25518;47.878;15.914;2023-06-26T17:01:18;4.30;;;2.90;;
39848;SDS011;25518;47.878;15.914;2023-06-26T17:04:08;4.70;;;2.80;;
39848;SDS011;25518;47.878;15.914;2023-06-26T17:06:57;5.45;;;3.00;;
39848;SDS011;25518;47.878;15.914;2023-06-26T17:09:47;4.93;;;3.00;;
39848;SDS011;25518;47.878;15.914;2023-06-26T17:12:37;4.15;;;2.83;;
39848;SDS011;25518;47.878;15.914;2023-06-26T17:15:28;4.18;;;2.80;;